METAR de aeropuertos de Murcia y cercanos

 

LEMI - Murcia/Corvera
Actualización: 02/03/2024 03:30
Despejado
Despejado
 Viento del O
Viento: O 15 km/h
Temperatura: 9°C
Wind Chill: 7°C
Rocío: -3°C
Humedad: 43%
Barómetro: 1014 hPa
Resumen: Despejado
Visibilidad: greater than 10 km
2024/03/02 02:30 LEMI 020230Z AUTO 26008KT CAVOK 09/M03 Q1014
LERI - Murcia/Alcantarilla
Actualización: 01/03/2024 18:30
NO Actualizado
Despejado
Despejado
 Viento del OSO
Viento: OSO 22 km/h
Temperatura: 17°C
Rocío: 5°C
Humedad: 45%
Barómetro: 1014 hPa
Resumen: Despejado
Visibilidad: greater than 10 km
2024/03/01 17:30 LERI 011730Z 25012KT 210V280 CAVOK 17/05 Q1014 NOSIG
LELC - Murcia/San Javier
Actualización: 02/03/2024 03:30
Despejado
Despejado
 Viento del OSO
Viento: OSO 11 km/h
Temperatura: 9°C
Wind Chill: 7°C
Rocío: 3°C
Humedad: 66%
Barómetro: 1014 hPa
Resumen: Despejado
Visibilidad: greater than 10 km
2024/03/02 02:30 LELC 020230Z AUTO 24006KT CAVOK 09/03 Q1014
 
LEAL - Alicante
Actualización: 02/03/2024 03:30
Despejado
Despejado
 Viento del ONO
Viento: ONO 15 km/h
Temperatura: 9°C
Wind Chill: 7°C
Rocío: 0°C
Humedad: 54%
Barómetro: 1013 hPa
Resumen: Despejado
Visibilidad: greater than 10 km
2024/03/02 02:30 LEAL 020230Z 29008KT CAVOK 09/00 Q1013 NOSIG
LEAB - Albacete
Actualización: 02/03/2024 03:30
Despejado
Despejado
 Viento del SO
Viento: SO 7 km/h
Temperatura: 4°C
Wind Chill: 2°C
Rocío: 1°C
Humedad: 81%
Barómetro: 1014 hPa
Resumen: Despejado
Visibilidad: greater than 10 km
2024/03/02 02:30 LEAB 020230Z 23004KT 200V260 CAVOK 04/01 Q1014 NOSIG
LEAM - Almería
Actualización: 02/03/2024 03:30
Despejado
Despejado
 Viento del N
Viento: N 9 km/h
Temperatura: 10°C
Wind Chill: 9°C
Rocío: 4°C
Humedad: 67%
Barómetro: 1014 hPa
Resumen: Despejado
Visibilidad: greater than 10 km
2024/03/02 02:30 LEAM 020230Z AUTO 36005KT CAVOK 10/04 Q1014

La estación de MeteoMurcia.com, publica sus datos en los siguientes proyectos:

Weather Underground PWS IMURCIAP2 Meteoclimatic www.awekas.at

Web Analytics

Clicky